sensor_id;sensor_type;location;lat;lon;timestamp;temperature;humidity
18317;DHT22;9284;52.298;21.164;2023-04-06T00:01:43;1.20;99.90
18317;DHT22;9284;52.298;21.164;2023-04-06T00:04:40;1.20;99.90
18317;DHT22;9284;52.298;21.164;2023-04-06T00:07:26;1.30;99.90
18317;DHT22;9284;52.298;21.164;2023-04-06T00:09:59;1.30;99.90
18317;DHT22;9284;52.298;21.164;2023-04-06T00:12:31;1.30;99.90
18317;DHT22;9284;52.298;21.164;2023-04-06T00:15:01;1.30;99.90
18317;DHT22;9284;52.298;21.164;2023-04-06T00:17:34;1.30;99.90
18317;DHT22;9284;52.298;21.164;2023-04-06T00:20:21;1.20;99.90
18317;DHT22;9284;52.298;21.164;2023-04-06T00:22:53;1.30;99.90
18317;DHT22;9284;52.298;21.164;2023-04-06T00:25:33;1.40;99.90
18317;DHT22;9284;52.298;21.164;2023-04-06T00:28:11;1.20;99.90
18317;DHT22;9284;52.298;21.164;2023-04-06T00:30:55;1.30;99.90
18317;DHT22;9284;52.298;21.164;2023-04-06T00:33:38;1.30;99.90
18317;DHT22;9284;52.298;21.164;2023-04-06T00:36:13;1.30;99.90
18317;DHT22;9284;52.298;21.164;2023-04-06T00:38:56;1.30;99.90
18317;DHT22;9284;52.298;21.164;2023-04-06T00:41:32;1.50;99.90
18317;DHT22;9284;52.298;21.164;2023-04-06T00:44:13;1.30;99.90
18317;DHT22;9284;52.298;21.164;2023-04-06T00:46:44;1.30;99.90
18317;DHT22;9284;52.298;21.164;2023-04-06T00:49:27;1.30;99.90
18317;DHT22;9284;52.298;21.164;2023-04-06T00:51:59;1.30;99.90
18317;DHT22;9284;52.298;21.164;2023-04-06T00:54:54;1.20;99.90
18317;DHT22;9284;52.298;21.164;2023-04-06T00:57:25;1.30;99.90
18317;DHT22;9284;52.298;21.164;2023-04-06T00:59:56;1.30;99.90
18317;DHT22;9284;52.298;21.164;2023-04-06T01:02:28;1.30;99.90
18317;DHT22;9284;52.298;21.164;2023-04-06T01:04:59;1.30;99.90
18317;DHT22;9284;52.298;21.164;2023-04-06T01:07:45;1.30;99.90
18317;DHT22;9284;52.298;21.164;2023-04-06T01:10:48;1.30;99.90
18317;DHT22;9284;52.298;21.164;2023-04-06T01:13:25;1.30;99.90
18317;DHT22;9284;52.298;21.164;2023-04-06T01:16:16;1.30;99.90
18317;DHT22;9284;52.298;21.164;2023-04-06T01:19:23;1.30;99.90
18317;DHT22;9284;52.298;21.164;2023-04-06T01:22:00;1.30;99.90
18317;DHT22;9284;52.298;21.164;2023-04-06T01:24:45;1.30;99.90
18317;DHT22;9284;52.298;21.164;2023-04-06T01:27:39;1.20;99.90
18317;DHT22;9284;52.298;21.164;2023-04-06T01:30:37;1.20;99.90
18317;DHT22;9284;52.298;21.164;2023-04-06T01:33:15;1.30;99.90
18317;DHT22;9284;52.298;21.164;2023-04-06T01:36:00;1.20;99.90
18317;DHT22;9284;52.298;21.164;2023-04-06T01:38:34;1.20;99.90
18317;DHT22;9284;52.298;21.164;2023-04-06T01:41:39;1.20;99.90
18317;DHT22;9284;52.298;21.164;2023-04-06T01:44:11;1.20;99.90
18317;DHT22;9284;52.298;21.164;2023-04-06T01:46:58;1.20;99.90
18317;DHT22;9284;52.298;21.164;2023-04-06T01:49:31;1.30;99.90
18317;DHT22;9284;52.298;21.164;2023-04-06T01:52:19;1.10;99.90
18317;DHT22;9284;52.298;21.164;2023-04-06T01:54:55;1.20;99.90
18317;DHT22;9284;52.298;21.164;2023-04-06T01:57:46;1.10;99.90
18317;DHT22;9284;52.298;21.164;2023-04-06T02:00:31;1.10;99.90
18317;DHT22;9284;52.298;21.164;2023-04-06T02:03:11;1.20;99.90
18317;DHT22;9284;52.298;21.164;2023-04-06T02:05:52;1.10;99.90
18317;DHT22;9284;52.298;21.164;2023-04-06T02:08:42;1.10;99.90
18317;DHT22;9284;52.298;21.164;2023-04-06T02:11:33;1.10;99.90
18317;DHT22;9284;52.298;21.164;2023-04-06T02:14:12;1.00;99.90
18317;DHT22;9284;52.298;21.164;2023-04-06T02:16:51;1.10;99.90
18317;DHT22;9284;52.298;21.164;2023-04-06T02:19:32;1.10;99.90
18317;DHT22;9284;52.298;21.164;2023-04-06T02:22:05;1.10;99.90
18317;DHT22;9284;52.298;21.164;2023-04-06T02:24:34;1.00;99.90
18317;DHT22;9284;52.298;21.164;2023-04-06T02:27:04;1.00;99.90
18317;DHT22;9284;52.298;21.164;2023-04-06T02:29:45;1.00;99.90
18317;DHT22;9284;52.298;21.164;2023-04-06T02:32:23;1.00;99.90
18317;DHT22;9284;52.298;21.164;2023-04-06T02:34:59;0.90;99.90
18317;DHT22;9284;52.298;21.164;2023-04-06T02:37:36;0.90;99.90
18317;DHT22;9284;52.298;21.164;2023-04-06T02:40:07;0.70;99.90
18317;DHT22;9284;52.298;21.164;2023-04-06T02:42:38;0.70;99.90
18317;DHT22;9284;52.298;21.164;2023-04-06T02:45:18;0.60;99.90
18317;DHT22;9284;52.298;21.164;2023-04-06T02:47:52;0.50;99.90
18317;DHT22;9284;52.298;21.164;2023-04-06T02:50:28;0.60;99.90
18317;DHT22;9284;52.298;21.164;2023-04-06T02:53:16;0.40;99.90
18317;DHT22;9284;52.298;21.164;2023-04-06T02:55:46;0.40;99.90
18317;DHT22;9284;52.298;21.164;2023-04-06T02:58:25;0.20;99.90
18317;DHT22;9284;52.298;21.164;2023-04-06T03:01:25;0.30;99.90
18317;DHT22;9284;52.298;21.164;2023-04-06T03:04:00;0.20;99.90
18317;DHT22;9284;52.298;21.164;2023-04-06T03:06:44;0.10;99.90
18317;DHT22;9284;52.298;21.164;2023-04-06T03:09:37;0.20;99.90
18317;DHT22;9284;52.298;21.164;2023-04-06T03:12:13;0.10;1.00
18317;DHT22;9284;52.298;21.164;2023-04-06T03:15:04;-0.10;1.00
18317;DHT22;9284;52.298;21.164;2023-04-06T03:17:37;-0.10;1.00
18317;DHT22;9284;52.298;21.164;2023-04-06T03:20:33;-0.10;1.00
18317;DHT22;9284;52.298;21.164;2023-04-06T03:23:14;-0.10;1.00
18317;DHT22;9284;52.298;21.164;2023-04-06T03:25:46;-0.20;1.00
18317;DHT22;9284;52.298;21.164;2023-04-06T03:28:29;0.00;1.00
18317;DHT22;9284;52.298;21.164;2023-04-06T03:31:16;0.00;1.00
18317;DHT22;9284;52.298;21.164;2023-04-06T03:33:59;0.10;1.00
18317;DHT22;9284;52.298;21.164;2023-04-06T03:36:50;0.20;1.00
18317;DHT22;9284;52.298;21.164;2023-04-06T03:39:36;0.10;1.00
18317;DHT22;9284;52.298;21.164;2023-04-06T03:42:11;0.30;1.00
18317;DHT22;9284;52.298;21.164;2023-04-06T03:45:16;0.10;1.00
18317;DHT22;9284;52.298;21.164;2023-04-06T03:47:58;0.10;1.00
18317;DHT22;9284;52.298;21.164;2023-04-06T03:50:36;0.10;1.00
18317;DHT22;9284;52.298;21.164;2023-04-06T03:53:14;0.30;1.00
18317;DHT22;9284;52.298;21.164;2023-04-06T03:55:48;0.20;1.00
18317;DHT22;9284;52.298;21.164;2023-04-06T03:58:27;0.20;1.00
18317;DHT22;9284;52.298;21.164;2023-04-06T04:01:08;0.40;1.00
18317;DHT22;9284;52.298;21.164;2023-04-06T04:03:42;0.20;1.00
18317;DHT22;9284;52.298;21.164;2023-04-06T04:06:20;0.30;1.00
18317;DHT22;9284;52.298;21.164;2023-04-06T04:09:01;0.30;1.00
18317;DHT22;9284;52.298;21.164;2023-04-06T04:11:36;0.30;1.00
18317;DHT22;9284;52.298;21.164;2023-04-06T04:14:09;0.20;1.00
18317;DHT22;9284;52.298;21.164;2023-04-06T04:16:52;0.30;1.00
18317;DHT22;9284;52.298;21.164;2023-04-06T04:19:25;0.30;1.00
18317;DHT22;9284;52.298;21.164;2023-04-06T04:22:15;0.30;1.00
18317;DHT22;9284;52.298;21.164;2023-04-06T04:24:58;0.30;1.00
18317;DHT22;9284;52.298;21.164;2023-04-06T04:27:33;0.20;1.00
18317;DHT22;9284;52.298;21.164;2023-04-06T04:30:31;0.30;1.00
18317;DHT22;9284;52.298;21.164;2023-04-06T04:33:12;0.40;1.00
18317;DHT22;9284;52.298;21.164;2023-04-06T04:36:00;0.30;1.00
18317;DHT22;9284;52.298;21.164;2023-04-06T04:39:04;0.40;1.00
18317;DHT22;9284;52.298;21.164;2023-04-06T04:41:43;0.40;1.00
18317;DHT22;9284;52.298;21.164;2023-04-06T04:44:13;0.70;1.00
18317;DHT22;9284;52.298;21.164;2023-04-06T04:46:57;0.60;99.90
18317;DHT22;9284;52.298;21.164;2023-04-06T04:49:38;0.80;99.90
18317;DHT22;9284;52.298;21.164;2023-04-06T04:52:11;0.50;99.90
18317;DHT22;9284;52.298;21.164;2023-04-06T04:55:18;0.60;99.90
18317;DHT22;9284;52.298;21.164;2023-04-06T04:58:08;0.70;99.90
18317;DHT22;9284;52.298;21.164;2023-04-06T05:00:52;0.70;99.90
18317;DHT22;9284;52.298;21.164;2023-04-06T05:03:22;0.80;99.90
18317;DHT22;9284;52.298;21.164;2023-04-06T05:06:05;0.70;99.90
18317;DHT22;9284;52.298;21.164;2023-04-06T05:08:40;0.80;99.90
18317;DHT22;9284;52.298;21.164;2023-04-06T05:11:34;1.00;99.90
18317;DHT22;9284;52.298;21.164;2023-04-06T05:14:12;0.90;99.90
18317;DHT22;9284;52.298;21.164;2023-04-06T05:17:01;1.00;99.90
18317;DHT22;9284;52.298;21.164;2023-04-06T05:19:51;1.10;99.90
18317;DHT22;9284;52.298;21.164;2023-04-06T05:22:29;1.20;99.90
18317;DHT22;9284;52.298;21.164;2023-04-06T05:25:21;1.20;99.90
18317;DHT22;9284;52.298;21.164;2023-04-06T05:28:43;1.40;99.90
18317;DHT22;9284;52.298;21.164;2023-04-06T05:31:11;1.40;99.90
18317;DHT22;9284;52.298;21.164;2023-04-06T05:33:54;1.50;99.90
18317;DHT22;9284;52.298;21.164;2023-04-06T05:36:34;1.90;99.90
18317;DHT22;9284;52.298;21.164;2023-04-06T05:39:13;1.80;99.90
18317;DHT22;9284;52.298;21.164;2023-04-06T05:41:48;1.90;99.90
18317;DHT22;9284;52.298;21.164;2023-04-06T05:44:40;1.90;99.90
18317;DHT22;9284;52.298;21.164;2023-04-06T05:47:13;2.00;99.90
18317;DHT22;9284;52.298;21.164;2023-04-06T05:49:51;2.00;99.90
18317;DHT22;9284;52.298;21.164;2023-04-06T05:52:37;2.10;99.90
18317;DHT22;9284;52.298;21.164;2023-04-06T05:55:33;2.20;99.90
18317;DHT22;9284;52.298;21.164;2023-04-06T05:58:24;2.50;99.90
18317;DHT22;9284;52.298;21.164;2023-04-06T06:01:12;2.40;99.90
18317;DHT22;9284;52.298;21.164;2023-04-06T06:03:57;2.40;99.90
18317;DHT22;9284;52.298;21.164;2023-04-06T06:06:34;2.40;99.90
18317;DHT22;9284;52.298;21.164;2023-04-06T06:09:14;2.50;99.90
18317;DHT22;9284;52.298;21.164;2023-04-06T06:12:06;2.50;99.90
18317;DHT22;9284;52.298;21.164;2023-04-06T06:14:43;2.50;99.90
18317;DHT22;9284;52.298;21.164;2023-04-06T06:17:13;2.50;99.90
18317;DHT22;9284;52.298;21.164;2023-04-06T06:19:47;2.50;99.90
18317;DHT22;9284;52.298;21.164;2023-04-06T06:22:16;2.60;99.90
18317;DHT22;9284;52.298;21.164;2023-04-06T06:24:46;2.70;99.90
18317;DHT22;9284;52.298;21.164;2023-04-06T06:27:19;2.80;99.90
18317;DHT22;9284;52.298;21.164;2023-04-06T06:29:50;2.80;99.90
18317;DHT22;9284;52.298;21.164;2023-04-06T06:32:23;3.00;99.90
18317;DHT22;9284;52.298;21.164;2023-04-06T06:34:58;2.90;99.90
18317;DHT22;9284;52.298;21.164;2023-04-06T06:37:30;3.10;99.90
18317;DHT22;9284;52.298;21.164;2023-04-06T06:40:01;3.00;99.90
18317;DHT22;9284;52.298;21.164;2023-04-06T06:42:31;3.00;99.90
18317;DHT22;9284;52.298;21.164;2023-04-06T06:45:12;3.00;99.90
18317;DHT22;9284;52.298;21.164;2023-04-06T06:47:42;3.10;99.90
18317;DHT22;9284;52.298;21.164;2023-04-06T06:50:16;3.00;99.90
18317;DHT22;9284;52.298;21.164;2023-04-06T06:52:50;3.00;99.90
18317;DHT22;9284;52.298;21.164;2023-04-06T06:55:25;3.20;99.90
18317;DHT22;9284;52.298;21.164;2023-04-06T06:58:13;3.20;99.90
18317;DHT22;9284;52.298;21.164;2023-04-06T07:00:45;3.40;99.90
18317;DHT22;9284;52.298;21.164;2023-04-06T07:03:22;3.60;99.90
18317;DHT22;9284;52.298;21.164;2023-04-06T07:05:58;3.90;99.90
18317;DHT22;9284;52.298;21.164;2023-04-06T07:08:29;3.90;99.90
18317;DHT22;9284;52.298;21.164;2023-04-06T07:11:02;3.90;99.90
18317;DHT22;9284;52.298;21.164;2023-04-06T07:13:32;3.40;99.90
18317;DHT22;9284;52.298;21.164;2023-04-06T07:16:06;3.50;99.90
18317;DHT22;9284;52.298;21.164;2023-04-06T07:18:44;3.40;99.90
18317;DHT22;9284;52.298;21.164;2023-04-06T07:21:43;3.50;99.90
18317;DHT22;9284;52.298;21.164;2023-04-06T07:24:28;3.40;99.90
18317;DHT22;9284;52.298;21.164;2023-04-06T07:27:12;3.30;99.90
18317;DHT22;9284;52.298;21.164;2023-04-06T07:30:13;3.40;99.90
18317;DHT22;9284;52.298;21.164;2023-04-06T07:33:07;3.40;99.90
18317;DHT22;9284;52.298;21.164;2023-04-06T07:36:05;3.40;99.90
18317;DHT22;9284;52.298;21.164;2023-04-06T07:38:43;3.60;99.90
18317;DHT22;9284;52.298;21.164;2023-04-06T07:41:25;3.50;99.90
18317;DHT22;9284;52.298;21.164;2023-04-06T07:44:15;3.60;99.90
18317;DHT22;9284;52.298;21.164;2023-04-06T07:47:00;3.60;99.90
18317;DHT22;9284;52.298;21.164;2023-04-06T07:49:46;3.50;99.90
18317;DHT22;9284;52.298;21.164;2023-04-06T07:52:25;3.40;99.90
18317;DHT22;9284;52.298;21.164;2023-04-06T07:55:14;3.40;99.90
18317;DHT22;9284;52.298;21.164;2023-04-06T07:57:57;3.40;99.90
18317;DHT22;9284;52.298;21.164;2023-04-06T08:00:31;3.40;99.90
18317;DHT22;9284;52.298;21.164;2023-04-06T08:03:21;3.30;99.90
18317;DHT22;9284;52.298;21.164;2023-04-06T08:06:07;3.10;99.90
18317;DHT22;9284;52.298;21.164;2023-04-06T08:08:47;3.20;99.90
18317;DHT22;9284;52.298;21.164;2023-04-06T08:11:20;3.20;99.90
18317;DHT22;9284;52.298;21.164;2023-04-06T08:14:07;3.10;99.90
18317;DHT22;9284;52.298;21.164;2023-04-06T08:16:38;3.30;99.90
18317;DHT22;9284;52.298;21.164;2023-04-06T08:19:11;3.20;99.90
18317;DHT22;9284;52.298;21.164;2023-04-06T08:22:07;3.10;99.90
18317;DHT22;9284;52.298;21.164;2023-04-06T08:24:51;3.00;99.90
18317;DHT22;9284;52.298;21.164;2023-04-06T08:27:26;3.10;99.90
18317;DHT22;9284;52.298;21.164;2023-04-06T08:29:57;3.10;99.90
18317;DHT22;9284;52.298;21.164;2023-04-06T08:32:41;3.20;99.90
18317;DHT22;9284;52.298;21.164;2023-04-06T08:35:26;3.20;99.90
18317;DHT22;9284;52.298;21.164;2023-04-06T08:38:03;3.00;99.90
18317;DHT22;9284;52.298;21.164;2023-04-06T08:40:40;2.90;1.00
18317;DHT22;9284;52.298;21.164;2023-04-06T08:43:21;3.00;1.00
18317;DHT22;9284;52.298;21.164;2023-04-06T08:45:51;2.90;1.00
18317;DHT22;9284;52.298;21.164;2023-04-06T08:48:25;3.00;1.00
18317;DHT22;9284;52.298;21.164;2023-04-06T08:50:56;3.00;1.00
18317;DHT22;9284;52.298;21.164;2023-04-06T08:53:29;3.10;1.00
18317;DHT22;9284;52.298;21.164;2023-04-06T08:56:15;3.20;1.00
18317;DHT22;9284;52.298;21.164;2023-04-06T08:58:52;3.20;1.00
18317;DHT22;9284;52.298;21.164;2023-04-06T09:01:36;3.40;1.00
18317;DHT22;9284;52.298;21.164;2023-04-06T09:04:33;3.30;1.00
18317;DHT22;9284;52.298;21.164;2023-04-06T09:07:10;3.00;1.00
18317;DHT22;9284;52.298;21.164;2023-04-06T09:13:28;3.00;1.00
18317;DHT22;9284;52.298;21.164;2023-04-06T09:16:41;3.10;1.00
18317;DHT22;9284;52.298;21.164;2023-04-06T09:19:27;3.20;1.00
18317;DHT22;9284;52.298;21.164;2023-04-06T09:22:19;3.10;99.90
18317;DHT22;9284;52.298;21.164;2023-04-06T09:25:05;2.90;1.00
18317;DHT22;9284;52.298;21.164;2023-04-06T09:31:10;2.70;9.40
18317;DHT22;9284;52.298;21.164;2023-04-06T09:34:28;2.60;1.00
18317;DHT22;9284;52.298;21.164;2023-04-06T09:37:17;2.50;99.90
18317;DHT22;9284;52.298;21.164;2023-04-06T09:40:02;2.40;1.00
18317;DHT22;9284;52.298;21.164;2023-04-06T09:42:47;2.60;99.90
18317;DHT22;9284;52.298;21.164;2023-04-06T09:45:31;2.70;1.00
18317;DHT22;9284;52.298;21.164;2023-04-06T09:48:08;2.60;1.00
18317;DHT22;9284;52.298;21.164;2023-04-06T09:50:59;2.60;99.90
18317;DHT22;9284;52.298;21.164;2023-04-06T09:53:45;2.70;99.90
18317;DHT22;9284;52.298;21.164;2023-04-06T09:56:28;2.60;99.90
18317;DHT22;9284;52.298;21.164;2023-04-06T09:59:09;2.60;1.00
18317;DHT22;9284;52.298;21.164;2023-04-06T10:01:43;2.40;99.90
18317;DHT22;9284;52.298;21.164;2023-04-06T10:04:27;2.20;1.00
18317;DHT22;9284;52.298;21.164;2023-04-06T10:06:59;2.40;7.20
18317;DHT22;9284;52.298;21.164;2023-04-06T10:09:32;2.50;99.90
18317;DHT22;9284;52.298;21.164;2023-04-06T10:12:11;2.60;99.90
18317;DHT22;9284;52.298;21.164;2023-04-06T10:14:48;2.60;99.90
18317;DHT22;9284;52.298;21.164;2023-04-06T10:17:31;2.60;99.90
18317;DHT22;9284;52.298;21.164;2023-04-06T10:20:21;2.70;99.90
18317;DHT22;9284;52.298;21.164;2023-04-06T10:22:59;2.60;99.90
18317;DHT22;9284;52.298;21.164;2023-04-06T10:25:39;2.50;99.90
18317;DHT22;9284;52.298;21.164;2023-04-06T10:28:17;2.40;1.00
18317;DHT22;9284;52.298;21.164;2023-04-06T10:30:57;2.30;99.90
18317;DHT22;9284;52.298;21.164;2023-04-06T10:34:01;2.20;1.00
18317;DHT22;9284;52.298;21.164;2023-04-06T10:37:01;2.30;1.00
18317;DHT22;9284;52.298;21.164;2023-04-06T10:40:04;2.40;99.90
18317;DHT22;9284;52.298;21.164;2023-04-06T10:42:54;2.30;1.00
18317;DHT22;9284;52.298;21.164;2023-04-06T10:45:38;2.30;1.00
18317;DHT22;9284;52.298;21.164;2023-04-06T10:48:20;2.40;99.90
18317;DHT22;9284;52.298;21.164;2023-04-06T10:51:08;2.30;99.90
18317;DHT22;9284;52.298;21.164;2023-04-06T10:53:44;2.30;99.90
18317;DHT22;9284;52.298;21.164;2023-04-06T10:56:21;2.40;1.00
18317;DHT22;9284;52.298;21.164;2023-04-06T10:59:01;2.40;1.00
18317;DHT22;9284;52.298;21.164;2023-04-06T11:01:45;2.40;1.00
18317;DHT22;9284;52.298;21.164;2023-04-06T11:04:28;2.50;1.00
18317;DHT22;9284;52.298;21.164;2023-04-06T11:07:02;2.50;1.00
18317;DHT22;9284;52.298;21.164;2023-04-06T11:09:57;2.40;1.00
18317;DHT22;9284;52.298;21.164;2023-04-06T11:12:55;2.40;99.90
18317;DHT22;9284;52.298;21.164;2023-04-06T11:15:56;2.50;1.00
18317;DHT22;9284;52.298;21.164;2023-04-06T11:18:53;2.60;99.90
18317;DHT22;9284;52.298;21.164;2023-04-06T11:21:39;2.60;95.50
18317;DHT22;9284;52.298;21.164;2023-04-06T11:24:36;2.70;99.90
18317;DHT22;9284;52.298;21.164;2023-04-06T11:27:37;2.90;1.00
18317;DHT22;9284;52.298;21.164;2023-04-06T11:30:28;2.90;1.00
18317;DHT22;9284;52.298;21.164;2023-04-06T11:33:20;3.00;1.00
18317;DHT22;9284;52.298;21.164;2023-04-06T11:36:08;3.00;1.00
18317;DHT22;9284;52.298;21.164;2023-04-06T11:38:45;3.10;1.00
18317;DHT22;9284;52.298;21.164;2023-04-06T11:41:48;3.10;1.00
18317;DHT22;9284;52.298;21.164;2023-04-06T11:44:33;3.20;99.90
18317;DHT22;9284;52.298;21.164;2023-04-06T11:47:14;3.20;99.90
18317;DHT22;9284;52.298;21.164;2023-04-06T11:50:13;3.30;1.00
18317;DHT22;9284;52.298;21.164;2023-04-06T11:52:51;3.20;99.90
18317;DHT22;9284;52.298;21.164;2023-04-06T11:55:41;3.40;1.00
18317;DHT22;9284;52.298;21.164;2023-04-06T11:58:19;3.40;99.90
18317;DHT22;9284;52.298;21.164;2023-04-06T12:01:06;3.60;99.90
18317;DHT22;9284;52.298;21.164;2023-04-06T12:03:44;3.30;42.60
18317;DHT22;9284;52.298;21.164;2023-04-06T12:06:27;3.40;22.30
18317;DHT22;9284;52.298;21.164;2023-04-06T12:08:57;3.30;46.90
18317;DHT22;9284;52.298;21.164;2023-04-06T12:11:33;3.50;99.90
18317;DHT22;9284;52.298;21.164;2023-04-06T12:14:20;3.60;99.90
18317;DHT22;9284;52.298;21.164;2023-04-06T12:17:01;3.40;1.00
18317;DHT22;9284;52.298;21.164;2023-04-06T12:19:56;3.30;5.60
18317;DHT22;9284;52.298;21.164;2023-04-06T12:22:58;3.30;4.50
18317;DHT22;9284;52.298;21.164;2023-04-06T12:25:31;3.30;60.90
18317;DHT22;9284;52.298;21.164;2023-04-06T12:28:12;3.30;1.00
18317;DHT22;9284;52.298;21.164;2023-04-06T12:30:55;3.30;1.00
18317;DHT22;9284;52.298;21.164;2023-04-06T12:33:35;3.40;99.90
18317;DHT22;9284;52.298;21.164;2023-04-06T12:36:16;3.30;26.20
18317;DHT22;9284;52.298;21.164;2023-04-06T12:38:58;3.40;99.90
18317;DHT22;9284;52.298;21.164;2023-04-06T12:41:40;3.50;99.90
18317;DHT22;9284;52.298;21.164;2023-04-06T12:44:15;3.50;99.90
18317;DHT22;9284;52.298;21.164;2023-04-06T12:46:58;3.50;98.70
18317;DHT22;9284;52.298;21.164;2023-04-06T12:49:48;3.50;99.90
18317;DHT22;9284;52.298;21.164;2023-04-06T12:52:20;3.40;99.90
18317;DHT22;9284;52.298;21.164;2023-04-06T12:54:50;3.50;99.90
18317;DHT22;9284;52.298;21.164;2023-04-06T12:57:24;3.50;1.00
18317;DHT22;9284;52.298;21.164;2023-04-06T12:59:57;3.50;1.00
18317;DHT22;9284;52.298;21.164;2023-04-06T13:02:30;3.50;1.00
18317;DHT22;9284;52.298;21.164;2023-04-06T13:05:07;3.50;1.00
18317;DHT22;9284;52.298;21.164;2023-04-06T13:07:40;3.50;99.90
18317;DHT22;9284;52.298;21.164;2023-04-06T13:10:22;3.50;1.00
18317;DHT22;9284;52.298;21.164;2023-04-06T13:13:01;3.50;1.00
18317;DHT22;9284;52.298;21.164;2023-04-06T13:15:39;3.40;1.00
18317;DHT22;9284;52.298;21.164;2023-04-06T13:18:13;3.40;1.00
18317;DHT22;9284;52.298;21.164;2023-04-06T13:20:46;3.40;99.90
18317;DHT22;9284;52.298;21.164;2023-04-06T13:23:18;3.20;99.90
18317;DHT22;9284;52.298;21.164;2023-04-06T13:25:57;3.20;1.00
18317;DHT22;9284;52.298;21.164;2023-04-06T13:28:34;3.20;92.40
18317;DHT22;9284;52.298;21.164;2023-04-06T13:31:18;3.20;1.00
18317;DHT22;9284;52.298;21.164;2023-04-06T13:33:52;3.20;1.00
18317;DHT22;9284;52.298;21.164;2023-04-06T13:36:36;3.10;1.00
18317;DHT22;9284;52.298;21.164;2023-04-06T13:39:12;3.10;1.00
18317;DHT22;9284;52.298;21.164;2023-04-06T13:41:41;3.20;1.00
18317;DHT22;9284;52.298;21.164;2023-04-06T13:44:13;3.00;68.90
18317;DHT22;9284;52.298;21.164;2023-04-06T13:46:43;3.00;1.00
18317;DHT22;9284;52.298;21.164;2023-04-06T13:49:15;2.90;1.00
18317;DHT22;9284;52.298;21.164;2023-04-06T13:51:47;2.90;99.90
18317;DHT22;9284;52.298;21.164;2023-04-06T13:54:25;2.90;99.90
18317;DHT22;9284;52.298;21.164;2023-04-06T13:56:58;2.80;99.90
18317;DHT22;9284;52.298;21.164;2023-04-06T13:59:35;2.80;1.00
18317;DHT22;9284;52.298;21.164;2023-04-06T14:02:14;2.80;99.90
18317;DHT22;9284;52.298;21.164;2023-04-06T14:04:48;2.90;99.90
18317;DHT22;9284;52.298;21.164;2023-04-06T14:10:54;2.70;1.00
18317;DHT22;9284;52.298;21.164;2023-04-06T14:13:25;2.80;1.00
18317;DHT22;9284;52.298;21.164;2023-04-06T14:16:35;2.80;99.90
18317;DHT22;9284;52.298;21.164;2023-04-06T14:19:07;2.70;99.90
18317;DHT22;9284;52.298;21.164;2023-04-06T14:21:45;2.70;1.00
18317;DHT22;9284;52.298;21.164;2023-04-06T14:24:20;2.70;1.00
18317;DHT22;9284;52.298;21.164;2023-04-06T14:26:55;2.80;1.00
18317;DHT22;9284;52.298;21.164;2023-04-06T14:29:38;2.80;28.30
18317;DHT22;9284;52.298;21.164;2023-04-06T14:32:23;2.80;1.00
18317;DHT22;9284;52.298;21.164;2023-04-06T14:34:58;2.80;1.00
18317;DHT22;9284;52.298;21.164;2023-04-06T14:37:36;2.90;1.00
18317;DHT22;9284;52.298;21.164;2023-04-06T14:40:19;2.90;99.90
18317;DHT22;9284;52.298;21.164;2023-04-06T14:42:57;2.90;1.00
18317;DHT22;9284;52.298;21.164;2023-04-06T14:45:33;3.00;1.00
18317;DHT22;9284;52.298;21.164;2023-04-06T14:48:07;2.90;1.00
18317;DHT22;9284;52.298;21.164;2023-04-06T14:50:39;3.00;1.00
18317;DHT22;9284;52.298;21.164;2023-04-06T14:53:07;3.00;1.00
18317;DHT22;9284;52.298;21.164;2023-04-06T14:55:39;3.00;99.90
18317;DHT22;9284;52.298;21.164;2023-04-06T14:58:16;3.00;99.90
18317;DHT22;9284;52.298;21.164;2023-04-06T15:00:45;2.90;99.90
18317;DHT22;9284;52.298;21.164;2023-04-06T15:03:17;3.00;99.90
18317;DHT22;9284;52.298;21.164;2023-04-06T15:05:47;3.00;91.50
18317;DHT22;9284;52.298;21.164;2023-04-06T15:08:24;3.00;99.90
18317;DHT22;9284;52.298;21.164;2023-04-06T15:11:04;3.10;99.90
18317;DHT22;9284;52.298;21.164;2023-04-06T15:13:40;3.00;1.00
18317;DHT22;9284;52.298;21.164;2023-04-06T15:16:17;3.00;1.00
18317;DHT22;9284;52.298;21.164;2023-04-06T15:18:56;3.10;1.00
18317;DHT22;9284;52.298;21.164;2023-04-06T15:21:30;2.90;1.00
18317;DHT22;9284;52.298;21.164;2023-04-06T15:24:47;2.90;1.00
18317;DHT22;9284;52.298;21.164;2023-04-06T15:27:38;2.90;99.90
18317;DHT22;9284;52.298;21.164;2023-04-06T15:30:15;2.90;99.90
18317;DHT22;9284;52.298;21.164;2023-04-06T15:32:54;2.90;99.90
18317;DHT22;9284;52.298;21.164;2023-04-06T15:35:32;2.90;99.90
18317;DHT22;9284;52.298;21.164;2023-04-06T15:38:24;2.90;99.90
18317;DHT22;9284;52.298;21.164;2023-04-06T15:41:07;2.90;99.90
18317;DHT22;9284;52.298;21.164;2023-04-06T15:46:48;2.90;99.90
18317;DHT22;9284;52.298;21.164;2023-04-06T15:49:24;2.90;99.90
18317;DHT22;9284;52.298;21.164;2023-04-06T15:52:09;2.80;1.00
18317;DHT22;9284;52.298;21.164;2023-04-06T15:54:51;2.80;1.00
18317;DHT22;9284;52.298;21.164;2023-04-06T15:57:25;2.80;1.00
18317;DHT22;9284;52.298;21.164;2023-04-06T16:00:11;2.80;1.00
18317;DHT22;9284;52.298;21.164;2023-04-06T16:03:01;2.80;99.90
18317;DHT22;9284;52.298;21.164;2023-04-06T16:06:06;2.80;99.90
18317;DHT22;9284;52.298;21.164;2023-04-06T16:08:48;2.70;99.90
18317;DHT22;9284;52.298;21.164;2023-04-06T16:11:34;2.70;99.90
18317;DHT22;9284;52.298;21.164;2023-04-06T16:14:07;2.80;1.00
18317;DHT22;9284;52.298;21.164;2023-04-06T16:16:38;2.70;1.00
18317;DHT22;9284;52.298;21.164;2023-04-06T16:19:15;2.70;1.00
18317;DHT22;9284;52.298;21.164;2023-04-06T16:21:48;2.80;1.00
18317;DHT22;9284;52.298;21.164;2023-04-06T16:24:23;2.70;1.00
18317;DHT22;9284;52.298;21.164;2023-04-06T16:26:57;2.70;1.00
18317;DHT22;9284;52.298;21.164;2023-04-06T16:29:37;2.70;1.00
18317;DHT22;9284;52.298;21.164;2023-04-06T16:32:12;2.70;1.00
18317;DHT22;9284;52.298;21.164;2023-04-06T16:35:04;2.70;1.00
18317;DHT22;9284;52.298;21.164;2023-04-06T16:37:47;2.70;1.00
18317;DHT22;9284;52.298;21.164;2023-04-06T16:40:18;2.70;1.00
18317;DHT22;9284;52.298;21.164;2023-04-06T16:42:55;2.70;1.00
18317;DHT22;9284;52.298;21.164;2023-04-06T16:45:38;2.70;1.00
18317;DHT22;9284;52.298;21.164;2023-04-06T16:48:11;2.70;1.00
18317;DHT22;9284;52.298;21.164;2023-04-06T16:50:45;2.70;18.90
18317;DHT22;9284;52.298;21.164;2023-04-06T16:53:16;2.60;32.60
18317;DHT22;9284;52.298;21.164;2023-04-06T16:55:47;2.70;53.90
18317;DHT22;9284;52.298;21.164;2023-04-06T16:58:16;2.70;79.20
18317;DHT22;9284;52.298;21.164;2023-04-06T17:00:47;2.70;93.50
18317;DHT22;9284;52.298;21.164;2023-04-06T17:03:15;2.70;99.90
18317;DHT22;9284;52.298;21.164;2023-04-06T17:05:46;2.70;99.90
18317;DHT22;9284;52.298;21.164;2023-04-06T17:08:15;2.70;99.90
18317;DHT22;9284;52.298;21.164;2023-04-06T17:10:56;2.70;99.90
18317;DHT22;9284;52.298;21.164;2023-04-06T17:13:32;2.80;99.90
18317;DHT22;9284;52.298;21.164;2023-04-06T17:16:01;2.70;99.90
18317;DHT22;9284;52.298;21.164;2023-04-06T17:18:30;2.70;99.90
18317;DHT22;9284;52.298;21.164;2023-04-06T17:21:05;2.70;99.90
18317;DHT22;9284;52.298;21.164;2023-04-06T17:23:36;2.70;99.90
18317;DHT22;9284;52.298;21.164;2023-04-06T17:26:07;2.80;99.90
18317;DHT22;9284;52.298;21.164;2023-04-06T17:28:40;2.80;99.90
18317;DHT22;9284;52.298;21.164;2023-04-06T17:31:11;2.80;99.90
18317;DHT22;9284;52.298;21.164;2023-04-06T17:33:46;2.80;99.90